createdAt,value
2018-02-15T00:00:39.144Z,99.99
2018-02-15T00:01:39.065Z,99.99
2018-02-15T00:02:38.973Z,99.99
2018-02-15T00:03:38.886Z,99.99
2018-02-15T00:04:38.840Z,99.99
2018-02-15T00:05:38.710Z,99.99
2018-02-15T00:06:38.623Z,99.99
2018-02-15T00:07:38.544Z,99.99
2018-02-15T00:08:38.462Z,99.99
2018-02-15T00:09:38.403Z,99.99
2018-02-15T00:10:38.285Z,99.99
2018-02-15T00:11:38.209Z,99.99
2018-02-15T00:12:38.117Z,99.99
2018-02-15T00:13:38.023Z,99.99
2018-02-15T00:14:37.936Z,99.99
2018-02-15T00:15:37.849Z,99.99
2018-02-15T00:16:37.757Z,99.99
2018-02-15T00:17:37.678Z,99.99
2018-02-15T00:18:37.593Z,99.99
2018-02-15T00:19:37.510Z,99.99
2018-02-15T00:20:37.416Z,99.99
2018-02-15T00:21:37.335Z,99.99
2018-02-15T00:22:37.268Z,99.99
2018-02-15T00:23:37.168Z,99.99
2018-02-15T00:24:37.074Z,99.99
2018-02-15T00:25:36.990Z,99.99
2018-02-15T00:26:36.898Z,99.99
2018-02-15T00:27:36.812Z,99.99
2018-02-15T00:28:36.732Z,99.99
2018-02-15T00:29:36.636Z,99.99
2018-02-15T00:30:36.553Z,99.99
2018-02-15T00:31:36.465Z,99.99
2018-02-15T00:32:36.386Z,99.99
2018-02-15T00:33:36.306Z,99.99
2018-02-15T00:34:36.209Z,99.99
2018-02-15T00:35:36.123Z,99.99
2018-02-15T00:36:36.039Z,99.99
2018-02-15T00:37:35.957Z,99.99
2018-02-15T00:38:35.864Z,99.99
2018-02-15T00:39:35.789Z,99.99
2018-02-15T00:40:35.685Z,99.99
2018-02-15T00:41:35.608Z,99.99
2018-02-15T00:42:35.512Z,99.99
2018-02-15T00:43:35.429Z,99.99
2018-02-15T00:44:35.360Z,99.99
2018-02-15T00:45:35.268Z,99.99
2018-02-15T00:46:35.178Z,99.99
2018-02-15T00:47:35.090Z,99.99
2018-02-15T00:48:35.004Z,99.99
2018-02-15T00:49:34.917Z,99.99
2018-02-15T00:50:34.837Z,99.99
2018-02-15T00:51:34.739Z,99.99
2018-02-15T00:52:34.672Z,99.99
2018-02-15T00:53:34.572Z,99.99
2018-02-15T00:54:34.492Z,99.99
2018-02-15T00:55:34.393Z,99.99
2018-02-15T00:56:34.315Z,99.99
2018-02-15T00:57:34.243Z,99.99
2018-02-15T00:58:34.137Z,99.99
2018-02-15T00:59:34.050Z,99.99
2018-02-15T01:00:33.972Z,99.99
2018-02-15T01:01:33.889Z,99.99
2018-02-15T01:02:33.794Z,99.99
2018-02-15T01:03:33.708Z,99.99
2018-02-15T01:04:33.616Z,99.99
2018-02-15T01:05:33.534Z,99.99
2018-02-15T01:06:33.439Z,99.99
2018-02-15T01:07:33.369Z,99.99
2018-02-15T01:08:33.293Z,99.99
2018-02-15T01:09:33.192Z,99.99
2018-02-15T01:10:33.112Z,99.99
2018-02-15T01:11:33.020Z,99.99
2018-02-15T01:12:32.932Z,99.99
2018-02-15T01:13:32.842Z,99.99
2018-02-15T01:14:32.774Z,99.99
2018-02-15T01:15:32.670Z,99.99
2018-02-15T01:16:32.579Z,99.99
2018-02-15T01:17:32.503Z,99.99
2018-02-15T01:18:32.417Z,99.99
2018-02-15T01:19:32.327Z,99.99
2018-02-15T01:20:32.244Z,99.99
2018-02-15T01:21:32.155Z,99.99
2018-02-15T01:22:32.071Z,99.99
2018-02-15T01:23:31.985Z,99.99
2018-02-15T01:24:31.895Z,99.99
2018-02-15T01:25:31.810Z,99.99
2018-02-15T01:26:31.718Z,99.99
2018-02-15T01:27:31.642Z,99.99
2018-02-15T01:28:31.573Z,99.99
2018-02-15T01:29:31.465Z,99.99
2018-02-15T01:30:31.384Z,99.99
2018-02-15T01:31:31.301Z,99.99
2018-02-15T01:32:31.206Z,99.99
2018-02-15T01:33:31.122Z,99.99
2018-02-15T01:34:31.036Z,99.99
2018-02-15T01:35:30.944Z,99.99
2018-02-15T01:36:30.862Z,99.99
2018-02-15T01:37:30.772Z,99.99
2018-02-15T01:38:30.688Z,99.99
2018-02-15T01:39:30.597Z,99.99
2018-02-15T01:40:30.516Z,99.99
2018-02-15T01:41:30.441Z,99.99
2018-02-15T01:42:30.350Z,99.99
2018-02-15T01:43:30.261Z,99.99
2018-02-15T01:44:30.175Z,99.99
2018-02-15T01:45:30.084Z,99.99
2018-02-15T01:46:30.001Z,99.99
2018-02-15T01:47:29.914Z,99.99
2018-02-15T01:48:29.820Z,99.99
2018-02-15T01:49:29.735Z,99.99
2018-02-15T01:50:29.650Z,99.99
2018-02-15T01:51:29.568Z,99.99
2018-02-15T01:52:29.485Z,99.99
2018-02-15T01:53:29.395Z,99.99
2018-02-15T01:54:29.312Z,99.99
2018-02-15T01:55:29.227Z,99.99
2018-02-15T01:56:29.134Z,99.99
2018-02-15T01:57:29.053Z,99.99
2018-02-15T01:58:28.972Z,99.99
2018-02-15T01:59:28.870Z,99.99
2018-02-15T02:00:28.790Z,99.99
2018-02-15T02:01:28.694Z,99.99
2018-02-15T02:02:28.623Z,99.99
2018-02-15T02:03:28.537Z,99.99
2018-02-15T02:04:28.444Z,99.99
2018-02-15T02:05:28.375Z,99.99
2018-02-15T02:06:28.274Z,99.99
2018-02-15T02:07:28.186Z,99.99
2018-02-15T02:08:28.100Z,99.99
2018-02-15T02:09:28.020Z,99.99
2018-02-15T02:10:27.943Z,99.99
2018-02-15T02:11:27.841Z,99.99
2018-02-15T02:12:27.746Z,99.99
2018-02-15T02:13:27.677Z,99.99
2018-02-15T02:14:27.588Z,99.99
2018-02-15T02:15:27.501Z,99.99
2018-02-15T02:16:27.416Z,99.99
2018-02-15T02:17:27.325Z,99.99
2018-02-15T02:18:27.239Z,99.99
2018-02-15T02:19:27.150Z,99.99
2018-02-15T02:20:27.070Z,99.99
2018-02-15T02:21:27.003Z,99.99
2018-02-15T02:22:26.887Z,99.99
2018-02-15T02:23:26.822Z,99.99
2018-02-15T02:24:26.728Z,99.99
2018-02-15T02:25:26.635Z,99.99
2018-02-15T02:26:26.549Z,99.99
2018-02-15T02:27:26.475Z,99.99
2018-02-15T02:28:26.377Z,99.99
2018-02-15T02:29:26.301Z,99.99
2018-02-15T02:30:26.229Z,99.99
2018-02-15T02:31:26.123Z,99.99
2018-02-15T02:32:26.031Z,99.99
2018-02-15T02:33:25.952Z,99.99
2018-02-15T02:34:25.856Z,99.99
2018-02-15T02:35:25.783Z,99.99
2018-02-15T02:36:25.699Z,99.99
2018-02-15T02:37:25.606Z,99.99
2018-02-15T02:38:25.522Z,99.99
2018-02-15T02:39:25.423Z,99.99
2018-02-15T02:40:25.347Z,99.99
2018-02-15T02:41:25.252Z,99.99
2018-02-15T02:42:25.172Z,99.99
2018-02-15T02:43:25.080Z,99.99
2018-02-15T02:44:25.000Z,99.99
2018-02-15T02:45:24.908Z,99.99
2018-02-15T02:46:24.836Z,99.99
2018-02-15T02:47:24.745Z,99.99
2018-02-15T02:48:24.655Z,99.99
2018-02-15T02:49:24.569Z,99.99
2018-02-15T02:50:24.483Z,99.99
2018-02-15T02:51:24.405Z,99.99
2018-02-15T02:52:24.300Z,99.99
2018-02-15T02:53:24.234Z,99.99
2018-02-15T02:54:24.130Z,99.99
2018-02-15T02:55:24.042Z,99.99
2018-02-15T02:56:23.958Z,99.99
2018-02-15T02:57:23.881Z,99.99
2018-02-15T02:58:23.794Z,99.99
2018-02-15T02:59:23.704Z,99.99
2018-02-15T03:00:23.630Z,99.99
2018-02-15T03:01:23.530Z,99.99
2018-02-15T03:02:23.451Z,99.99
2018-02-15T03:03:23.351Z,99.99
2018-02-15T03:04:23.269Z,99.99
2018-02-15T03:05:23.178Z,99.99
2018-02-15T03:06:23.112Z,99.99
2018-02-15T03:07:23.021Z,99.99
2018-02-15T03:08:22.928Z,99.99
2018-02-15T03:09:22.855Z,99.99
2018-02-15T03:10:22.754Z,99.99
2018-02-15T03:11:22.664Z,99.99
2018-02-15T03:12:22.579Z,99.99
2018-02-15T03:13:22.493Z,99.99
2018-02-15T03:14:22.407Z,99.99
2018-02-15T03:15:22.323Z,99.99
2018-02-15T03:16:22.262Z,99.99
2018-02-15T03:17:22.152Z,99.99
2018-02-15T03:18:22.069Z,99.99
2018-02-15T03:19:21.988Z,99.99
2018-02-15T03:20:21.905Z,99.99
2018-02-15T03:21:21.810Z,99.99
2018-02-15T03:22:21.722Z,99.99
2018-02-15T03:23:21.637Z,99.99
2018-02-15T03:24:21.558Z,99.99
2018-02-15T03:25:21.461Z,99.99
2018-02-15T03:26:21.384Z,99.99
2018-02-15T03:27:21.314Z,99.99
2018-02-15T03:28:21.206Z,99.99
2018-02-15T03:29:21.124Z,99.99
2018-02-15T03:30:21.044Z,99.99
2018-02-15T03:31:20.956Z,99.99
2018-02-15T03:32:20.860Z,99.99
2018-02-15T03:33:20.770Z,99.99
2018-02-15T03:34:20.688Z,99.99
2018-02-15T03:35:20.610Z,99.99
2018-02-15T03:36:20.539Z,99.99
2018-02-15T03:37:20.481Z,99.99
2018-02-15T03:38:20.354Z,99.99
2018-02-15T03:39:20.261Z,99.99
2018-02-15T03:40:20.172Z,99.99
2018-02-15T03:41:20.082Z,99.99
2018-02-15T03:42:20.011Z,99.99
2018-02-15T03:43:19.910Z,99.99
2018-02-15T03:44:19.824Z,99.99
2018-02-15T03:45:19.741Z,99.99
2018-02-15T03:46:19.658Z,99.99
2018-02-15T03:47:19.569Z,99.99
2018-02-15T03:48:19.484Z,99.99
2018-02-15T03:49:19.394Z,99.99
2018-02-15T03:50:19.310Z,99.99
2018-02-15T03:51:19.236Z,99.99
2018-02-15T03:52:19.130Z,99.99
2018-02-15T03:53:19.054Z,99.99
2018-02-15T03:54:18.981Z,99.99
2018-02-15T03:55:18.872Z,99.99
2018-02-15T03:56:18.801Z,99.99
2018-02-15T03:57:18.705Z,99.99
2018-02-15T03:58:18.612Z,99.99
2018-02-15T03:59:18.538Z,99.99
2018-02-15T04:00:18.447Z,99.99
2018-02-15T04:01:18.368Z,99.99
2018-02-15T04:02:18.274Z,99.99
2018-02-15T04:03:18.188Z,99.99
2018-02-15T04:04:18.112Z,99.99
2018-02-15T04:05:18.013Z,99.99
2018-02-15T04:06:17.926Z,99.99
2018-02-15T04:07:17.856Z,99.99
2018-02-15T04:08:17.748Z,99.99
2018-02-15T04:09:17.663Z,99.99
2018-02-15T04:10:17.587Z,99.99
2018-02-15T04:11:17.536Z,99.99
2018-02-15T04:12:17.418Z,99.99
2018-02-15T04:13:17.323Z,99.99
2018-02-15T04:14:17.241Z,99.99
2018-02-15T04:15:17.160Z,99.99
2018-02-15T04:16:17.062Z,99.99
2018-02-15T04:17:16.979Z,99.99
2018-02-15T04:18:16.884Z,99.99
2018-02-15T04:19:16.808Z,99.99
2018-02-15T04:20:16.714Z,99.99
2018-02-15T04:21:16.635Z,99.99
2018-02-15T04:22:16.544Z,99.99
2018-02-15T04:23:16.469Z,99.99
2018-02-15T04:24:16.377Z,99.99
2018-02-15T04:25:16.288Z,99.99
2018-02-15T04:26:16.208Z,99.99
2018-02-15T04:27:16.112Z,99.99
2018-02-15T04:28:16.027Z,99.99
2018-02-15T04:29:15.936Z,99.99
2018-02-15T04:30:15.856Z,99.99
2018-02-15T04:31:15.791Z,99.99
2018-02-15T04:32:15.688Z,99.99
2018-02-15T04:33:15.619Z,99.99
2018-02-15T04:34:15.510Z,99.99
2018-02-15T04:35:15.428Z,99.99
2018-02-15T04:36:15.339Z,99.99
2018-02-15T04:37:15.260Z,99.99
2018-02-15T04:38:15.164Z,99.99
2018-02-15T04:39:15.079Z,99.99
2018-02-15T04:40:14.986Z,99.99
2018-02-15T04:41:14.916Z,99.99
2018-02-15T04:42:14.815Z,99.99
2018-02-15T04:43:14.732Z,99.99
2018-02-15T04:44:14.644Z,99.99
2018-02-15T04:45:14.562Z,99.99
2018-02-15T04:46:14.479Z,99.99
2018-02-15T04:47:14.394Z,99.99
2018-02-15T04:48:14.317Z,99.99
2018-02-15T04:49:14.221Z,99.99
2018-02-15T04:50:14.138Z,99.99
2018-02-15T04:51:14.038Z,99.99
2018-02-15T04:52:13.956Z,99.99
2018-02-15T04:53:13.866Z,99.99
2018-02-15T04:54:13.794Z,99.99
2018-02-15T04:55:13.696Z,99.99
2018-02-15T04:56:13.614Z,99.99
2018-02-15T04:57:13.541Z,99.99
2018-02-15T04:58:13.438Z,99.99
2018-02-15T04:59:13.368Z,99.99
2018-02-15T05:00:13.266Z,99.99
2018-02-15T05:01:13.180Z,99.99
2018-02-15T05:02:13.094Z,99.99
2018-02-15T05:03:13.021Z,99.99
2018-02-15T05:04:12.920Z,99.99
2018-02-15T05:05:12.831Z,99.99
2018-02-15T05:06:12.739Z,99.99
2018-02-15T05:07:12.669Z,99.99
2018-02-15T05:08:12.592Z,99.99
2018-02-15T05:09:12.495Z,99.99
2018-02-15T05:10:12.411Z,99.99
2018-02-15T05:11:12.318Z,99.99
2018-02-15T05:12:12.228Z,99.99
2018-02-15T05:13:12.145Z,99.99
2018-02-15T05:14:12.065Z,99.99
2018-02-15T05:15:11.966Z,99.99
2018-02-15T05:16:11.883Z,99.99
2018-02-15T05:17:11.791Z,99.99
2018-02-15T05:18:11.718Z,99.99
2018-02-15T05:19:11.631Z,99.99
2018-02-15T05:20:11.544Z,99.99
2018-02-15T05:21:11.472Z,99.99
2018-02-15T05:22:11.370Z,99.99
2018-02-15T05:23:11.294Z,99.99
2018-02-15T05:24:11.203Z,99.99
2018-02-15T05:25:11.122Z,99.99
2018-02-15T05:26:11.018Z,99.99
2018-02-15T05:27:10.930Z,99.99
2018-02-15T05:28:10.849Z,99.99
2018-02-15T05:29:10.766Z,99.99
2018-02-15T05:30:10.698Z,99.99
2018-02-15T05:31:10.596Z,99.99
2018-02-15T05:32:10.505Z,99.99
2018-02-15T05:33:10.423Z,99.99
2018-02-15T05:34:10.335Z,99.99
2018-02-15T05:35:10.242Z,99.99
2018-02-15T05:36:10.165Z,99.99
2018-02-15T05:37:10.072Z,99.99
2018-02-15T05:38:09.999Z,99.99
2018-02-15T05:39:09.897Z,99.99
2018-02-15T05:40:09.820Z,99.99
2018-02-15T05:41:09.740Z,99.99
2018-02-15T05:42:09.641Z,99.99
2018-02-15T05:43:09.556Z,99.99
2018-02-15T05:44:09.471Z,99.99
2018-02-15T05:45:09.383Z,99.99
2018-02-15T05:46:09.300Z,99.99
2018-02-15T05:47:09.212Z,99.99
2018-02-15T05:48:09.120Z,99.99
2018-02-15T05:49:09.051Z,99.99
2018-02-15T05:50:08.944Z,99.99
2018-02-15T05:51:08.867Z,99.99
2018-02-15T05:52:08.801Z,99.99
2018-02-15T05:53:08.696Z,99.99
2018-02-15T05:54:08.617Z,99.99
2018-02-15T05:55:08.525Z,99.99
2018-02-15T05:56:08.449Z,99.99
2018-02-15T05:57:08.349Z,99.99
2018-02-15T05:58:08.260Z,99.99
2018-02-15T05:59:08.173Z,99.99
2018-02-15T06:00:08.099Z,99.99
2018-02-15T06:01:08.008Z,99.99
2018-02-15T06:02:07.922Z,99.99
2018-02-15T06:03:07.836Z,99.99
2018-02-15T06:04:07.750Z,99.99
2018-02-15T06:05:07.666Z,99.99
2018-02-15T06:06:07.572Z,99.99
2018-02-15T06:07:07.488Z,99.99
2018-02-15T06:08:07.403Z,99.99
2018-02-15T06:09:07.320Z,99.99
2018-02-15T06:10:07.243Z,99.99
2018-02-15T06:11:07.148Z,99.99
2018-02-15T06:12:07.070Z,99.99
2018-02-15T06:13:06.977Z,99.99
2018-02-15T06:14:06.889Z,99.99
2018-02-15T06:15:06.795Z,99.99
2018-02-15T06:16:06.712Z,99.99
2018-02-15T06:17:06.634Z,99.99
2018-02-15T06:18:06.542Z,99.99
2018-02-15T06:19:06.455Z,99.99
2018-02-15T06:20:06.363Z,99.99
2018-02-15T06:21:06.276Z,99.99
2018-02-15T06:22:06.190Z,99.99
2018-02-15T06:23:06.113Z,99.99
2018-02-15T06:24:06.026Z,99.99
2018-02-15T06:25:05.937Z,99.99
2018-02-15T06:26:05.852Z,99.99
2018-02-15T06:27:05.777Z,99.99
2018-02-15T06:28:05.673Z,99.99
2018-02-15T06:29:05.590Z,99.99
2018-02-15T06:30:05.503Z,99.99
2018-02-15T06:31:05.424Z,99.99
2018-02-15T06:32:05.332Z,99.99
2018-02-15T06:33:05.256Z,99.99
2018-02-15T06:34:05.170Z,99.99
2018-02-15T06:35:05.081Z,99.99
2018-02-15T06:36:04.988Z,99.99
2018-02-15T06:37:04.906Z,99.99
2018-02-15T06:38:04.821Z,99.99
2018-02-15T06:39:04.736Z,99.99
2018-02-15T06:40:04.646Z,99.99
2018-02-15T06:41:04.551Z,99.99
2018-02-15T06:42:04.479Z,99.99
2018-02-15T06:43:04.381Z,99.99
2018-02-15T06:44:04.302Z,99.99
2018-02-15T06:45:04.222Z,99.99
2018-02-15T06:46:04.126Z,99.99
2018-02-15T06:47:04.050Z,99.99
2018-02-15T06:48:03.955Z,99.99
2018-02-15T06:49:03.863Z,99.99
2018-02-15T06:50:03.777Z,99.99
2018-02-15T06:51:03.691Z,99.99
2018-02-15T06:52:03.613Z,99.99
2018-02-15T06:53:03.584Z,99.99
2018-02-15T06:54:03.451Z,99.99
2018-02-15T06:55:03.351Z,99.99
2018-02-15T06:56:03.281Z,99.99
2018-02-15T06:57:03.178Z,99.99
2018-02-15T06:58:03.109Z,99.99
2018-02-15T06:59:03.004Z,99.99
2018-02-15T07:00:02.926Z,99.99
2018-02-15T07:01:02.845Z,99.99
2018-02-15T07:02:02.754Z,99.99
2018-02-15T07:03:02.652Z,99.99
2018-02-15T07:04:02.581Z,99.99
2018-02-15T07:05:02.557Z,99.99
2018-02-15T07:06:02.406Z,99.99
2018-02-15T07:07:02.333Z,99.99
2018-02-15T07:08:02.228Z,99.99
2018-02-15T07:09:02.149Z,99.99
2018-02-15T07:10:02.051Z,99.99
2018-02-15T07:11:01.976Z,99.99
2018-02-15T07:12:01.883Z,99.99
2018-02-15T07:13:01.804Z,99.99
2018-02-15T07:14:01.729Z,99.99
2018-02-15T07:15:01.632Z,99.99
2018-02-15T07:16:01.544Z,99.99
2018-02-15T07:17:01.461Z,99.99
2018-02-15T07:18:01.403Z,99.99
2018-02-15T07:19:01.302Z,99.99
2018-02-15T07:20:01.199Z,99.99
2018-02-15T07:21:01.102Z,99.99
2018-02-15T07:22:01.025Z,99.99
2018-02-15T07:23:00.933Z,99.99
2018-02-15T07:24:00.856Z,99.99
2018-02-15T07:25:00.783Z,99.99
2018-02-15T07:26:00.680Z,99.99
2018-02-15T07:27:00.594Z,99.99
2018-02-15T07:28:00.509Z,99.99
2018-02-15T07:29:00.438Z,99.99
2018-02-15T07:30:00.336Z,99.94
2018-02-15T07:31:00.258Z,99.56
2018-02-15T07:32:00.166Z,99.84
2018-02-15T07:33:00.084Z,99.46
2018-02-15T07:33:59.996Z,99.99
2018-02-15T07:34:59.908Z,99.99
2018-02-15T07:35:59.834Z,99.94
2018-02-15T07:36:59.735Z,99.94
2018-02-15T07:37:59.644Z,99.37
2018-02-15T07:38:59.562Z,98.99
2018-02-15T07:39:59.487Z,99.46
2018-02-15T07:40:59.406Z,98.80
2018-02-15T07:41:59.316Z,98.43
2018-02-15T07:42:59.255Z,98.33
2018-02-15T07:43:59.130Z,98.52
2018-02-15T07:44:59.049Z,98.33
2018-02-15T07:45:58.959Z,98.61
2018-02-15T07:46:58.882Z,97.96
2018-02-15T07:47:58.799Z,97.77
2018-02-15T07:48:58.708Z,97.29
2018-02-15T07:49:58.636Z,97.10
2018-02-15T07:50:58.536Z,97.67
2018-02-15T07:51:58.446Z,96.73
2018-02-15T07:52:58.376Z,96.82
2018-02-15T07:53:58.281Z,96.82
2018-02-15T07:54:58.206Z,96.63
2018-02-15T07:55:58.115Z,96.44
2018-02-15T07:56:58.021Z,96.73
2018-02-15T07:57:57.947Z,95.97
2018-02-15T07:58:57.862Z,96.16
2018-02-15T07:59:57.783Z,96.44
2018-02-15T08:00:57.685Z,96.73
2018-02-15T08:01:57.595Z,96.44
2018-02-15T08:02:57.506Z,97.01
2018-02-15T08:03:57.424Z,96.54
2018-02-15T08:04:57.334Z,97.01
2018-02-15T08:05:57.261Z,97.39
2018-02-15T08:06:57.182Z,97.10
2018-02-15T08:07:57.082Z,96.91
2018-02-15T08:08:57.014Z,96.44
2018-02-15T08:09:56.908Z,97.10
2018-02-15T08:10:56.834Z,97.01
2018-02-15T08:11:56.756Z,96.82
2018-02-15T08:12:56.658Z,96.82
2018-02-15T08:13:56.575Z,96.06
2018-02-15T08:14:56.493Z,96.06
2018-02-15T08:15:56.408Z,96.16
2018-02-15T08:16:56.327Z,95.78
2018-02-15T08:17:56.246Z,96.35
2018-02-15T08:18:56.148Z,96.30
2018-02-15T08:19:56.068Z,95.21
2018-02-15T08:20:55.976Z,95.78
2018-02-15T08:21:55.891Z,95.45
2018-02-15T08:22:55.819Z,95.31
2018-02-15T08:23:55.728Z,95.12
2018-02-15T08:24:55.637Z,95.40
2018-02-15T08:25:55.562Z,95.07
2018-02-15T08:26:55.461Z,94.79
2018-02-15T08:27:55.390Z,94.74
2018-02-15T08:28:55.312Z,94.65
2018-02-15T08:29:55.216Z,94.60
2018-02-15T08:30:55.141Z,95.40
2018-02-15T08:31:55.042Z,95.50
2018-02-15T08:32:54.964Z,95.40
2018-02-15T08:33:54.877Z,95.45
2018-02-15T08:34:54.785Z,94.79
2018-02-15T08:35:54.703Z,94.70
2018-02-15T08:36:54.614Z,94.56
2018-02-15T08:37:54.542Z,95.12
2018-02-15T08:38:54.454Z,95.36
2018-02-15T08:39:54.366Z,94.46
2018-02-15T08:40:54.284Z,94.51
2018-02-15T08:41:54.187Z,94.93
2018-02-15T08:42:54.113Z,95.03
2018-02-15T08:43:54.032Z,94.46
2018-02-15T08:44:53.940Z,94.84
2018-02-15T08:45:53.871Z,94.70
2018-02-15T08:46:53.767Z,95.17
2018-02-15T08:47:53.691Z,94.60
2018-02-15T08:48:53.604Z,93.99
2018-02-15T08:49:53.520Z,94.46
2018-02-15T08:50:53.425Z,95.36
2018-02-15T08:51:53.342Z,94.93
2018-02-15T08:52:53.268Z,94.56
2018-02-15T08:53:53.183Z,94.46
2018-02-15T08:54:53.101Z,94.65
2018-02-15T08:55:53.004Z,94.32
2018-02-15T08:56:52.920Z,94.32
2018-02-15T08:57:52.844Z,93.09
2018-02-15T08:58:52.754Z,92.99
2018-02-15T08:59:52.668Z,92.80
2018-02-15T09:00:52.598Z,92.14
2018-02-15T09:01:52.493Z,91.58
2018-02-15T09:02:52.422Z,90.63
2018-02-15T09:03:52.402Z,91.01
2018-02-15T09:04:52.247Z,90.73
2018-02-15T09:05:52.157Z,90.16
2018-02-15T09:06:52.079Z,90.82
2018-02-15T09:07:52.000Z,91.39
2018-02-15T09:08:51.916Z,90.73
2018-02-15T09:09:51.820Z,90.25
2018-02-15T09:10:51.734Z,89.64
2018-02-15T09:11:51.676Z,89.64
2018-02-15T09:12:51.568Z,89.92
2018-02-15T09:13:51.501Z,89.83
2018-02-15T09:14:51.400Z,89.40
2018-02-15T09:15:51.321Z,89.36
2018-02-15T09:16:51.217Z,89.78
2018-02-15T09:17:51.147Z,89.17
2018-02-15T09:18:51.064Z,88.31
2018-02-15T09:19:50.967Z,86.99
2018-02-15T09:20:50.883Z,86.61
2018-02-15T09:21:50.804Z,87.18
2018-02-15T09:22:50.715Z,87.08
2018-02-15T09:23:50.639Z,86.56
2018-02-15T09:24:50.568Z,86.23
2018-02-15T09:25:50.477Z,85.90
2018-02-15T09:26:50.383Z,85.76
2018-02-15T09:27:50.297Z,86.14
2018-02-15T09:28:50.227Z,87.27
2018-02-15T09:29:50.131Z,87.08
2018-02-15T09:30:50.047Z,86.99
2018-02-15T09:31:49.980Z,87.08
2018-02-15T09:32:49.868Z,86.90
2018-02-15T09:33:49.801Z,86.61
2018-02-15T09:34:49.754Z,86.56
2018-02-15T09:35:49.648Z,86.28
2018-02-15T09:36:49.641Z,85.71
2018-02-15T09:37:49.457Z,85.90
2018-02-15T09:38:49.369Z,85.99
2018-02-15T09:39:49.291Z,85.85
2018-02-15T09:40:49.215Z,86.14
2018-02-15T09:41:49.128Z,85.76
2018-02-15T09:42:49.075Z,86.23
2018-02-15T09:43:48.950Z,86.90
2018-02-15T09:44:48.868Z,86.90
2018-02-15T09:45:48.803Z,87.46
2018-02-15T09:46:48.730Z,86.99
2018-02-15T09:47:48.620Z,87.93
2018-02-15T09:48:48.548Z,87.93
2018-02-15T09:49:48.445Z,87.46
2018-02-15T09:50:48.373Z,87.08
2018-02-15T09:51:48.339Z,86.80
2018-02-15T09:52:48.193Z,86.90
2018-02-15T09:53:48.138Z,87.08
2018-02-15T09:54:48.084Z,86.23
2018-02-15T09:55:47.943Z,85.85
2018-02-15T09:56:47.865Z,85.57
2018-02-15T09:57:47.775Z,85.76
2018-02-15T09:58:47.694Z,85.24
2018-02-15T09:59:47.629Z,85.10
2018-02-15T10:00:47.525Z,84.72
2018-02-15T10:01:47.441Z,84.72
2018-02-15T10:02:47.376Z,85.10
2018-02-15T10:03:47.272Z,85.57
2018-02-15T10:04:47.191Z,86.33
2018-02-15T10:05:47.103Z,86.33
2018-02-15T10:06:47.021Z,85.85
2018-02-15T10:07:46.939Z,85.95
2018-02-15T10:08:46.848Z,85.19
2018-02-15T10:09:46.776Z,84.91
2018-02-15T10:10:46.693Z,85.00
2018-02-15T10:11:46.598Z,84.95
2018-02-15T10:12:46.526Z,84.01
2018-02-15T10:13:46.437Z,83.91
2018-02-15T10:14:46.354Z,83.15
2018-02-15T10:15:46.265Z,82.31
2018-02-15T10:16:46.173Z,82.59
2018-02-15T10:17:46.102Z,82.78
2018-02-15T10:18:46.031Z,82.31
2018-02-15T10:19:45.929Z,81.93
2018-02-15T10:20:45.859Z,81.36
2018-02-15T10:21:45.776Z,81.45
2018-02-15T10:22:45.675Z,82.02
2018-02-15T10:23:45.603Z,82.02
2018-02-15T10:24:45.528Z,81.83
2018-02-15T10:25:45.429Z,81.93
2018-02-15T10:26:45.345Z,81.93
2018-02-15T10:27:45.262Z,83.15
2018-02-15T10:28:45.176Z,81.83
2018-02-15T10:29:45.089Z,82.21
2018-02-15T10:30:45.062Z,80.88
2018-02-15T10:31:44.930Z,81.55
2018-02-15T10:32:44.860Z,81.93
2018-02-15T10:33:44.756Z,82.21
2018-02-15T10:34:44.678Z,81.83
2018-02-15T10:35:44.604Z,81.26
2018-02-15T10:36:44.521Z,80.88
2018-02-15T10:37:44.426Z,80.69
2018-02-15T10:38:44.353Z,80.41
2018-02-15T10:39:44.256Z,80.07
2018-02-15T10:40:44.176Z,79.22
2018-02-15T10:41:44.096Z,79.41
2018-02-15T10:42:44.019Z,79.37
2018-02-15T10:43:43.926Z,79.66
2018-02-15T10:44:43.863Z,79.79
2018-02-15T10:45:43.752Z,79.60
2018-02-15T10:46:43.674Z,79.66
2018-02-15T10:47:43.596Z,80.13
2018-02-15T10:48:43.503Z,80.64
2018-02-15T10:49:43.440Z,79.69
2018-02-15T10:50:43.355Z,78.94
2018-02-15T10:51:43.281Z,78.65
2018-02-15T10:52:43.179Z,78.08
2018-02-15T10:53:43.100Z,78.33
2018-02-15T10:54:43.005Z,78.65
2018-02-15T10:55:42.933Z,78.27
2018-02-15T10:56:42.854Z,77.89
2018-02-15T10:57:42.760Z,77.08
2018-02-15T10:58:42.681Z,75.57
2018-02-15T10:59:42.590Z,75.28
2018-02-15T11:00:42.520Z,73.99
2018-02-15T11:01:42.427Z,73.71
2018-02-15T11:02:42.350Z,72.80
2018-02-15T11:03:42.282Z,71.85
2018-02-15T11:04:42.188Z,71.00
2018-02-15T11:05:42.109Z,70.78
2018-02-15T11:06:42.019Z,71.44
2018-02-15T11:07:41.938Z,72.44
2018-02-15T11:08:41.857Z,72.82
2018-02-15T11:09:41.779Z,72.73
2018-02-15T11:10:41.692Z,73.20
2018-02-15T11:11:41.622Z,72.92
2018-02-15T11:12:41.527Z,72.92
2018-02-15T11:13:41.448Z,72.86
2018-02-15T11:14:41.370Z,72.29
2018-02-15T11:15:41.283Z,72.06
2018-02-15T11:16:41.205Z,72.29
2018-02-15T11:17:41.133Z,71.72
2018-02-15T11:18:41.045Z,70.68
2018-02-15T11:19:40.961Z,70.49
2018-02-15T11:20:40.880Z,71.44
2018-02-15T11:21:40.798Z,71.91
2018-02-15T11:22:40.722Z,72.73
2018-02-15T11:23:40.631Z,73.73
2018-02-15T11:24:40.558Z,75.72
2018-02-15T11:25:40.485Z,75.53
2018-02-15T11:26:40.384Z,75.53
2018-02-15T11:27:40.309Z,75.53
2018-02-15T11:28:40.230Z,76.00
2018-02-15T11:29:40.150Z,76.38
2018-02-15T11:30:40.064Z,75.91
2018-02-15T11:31:39.981Z,75.53
2018-02-15T11:32:39.910Z,76.10
2018-02-15T11:33:39.820Z,76.00
2018-02-15T11:34:39.734Z,76.76
2018-02-15T11:35:39.661Z,76.57
2018-02-15T11:36:39.567Z,76.57
2018-02-15T11:37:39.489Z,76.14
2018-02-15T11:38:39.413Z,74.90
2018-02-15T11:39:39.318Z,74.52
2018-02-15T11:40:39.250Z,73.77
2018-02-15T11:41:39.156Z,73.96
2018-02-15T11:42:39.085Z,73.58
2018-02-15T11:43:39.001Z,73.77
2018-02-15T11:44:38.906Z,74.43
2018-02-15T11:45:38.835Z,74.90
2018-02-15T11:46:38.747Z,73.96
2018-02-15T11:47:38.669Z,73.77
2018-02-15T11:48:38.582Z,73.39
2018-02-15T11:49:38.536Z,72.82
2018-02-15T11:50:38.428Z,72.38
2018-02-15T11:51:38.360Z,72.63
2018-02-15T11:52:38.267Z,72.29
2018-02-15T11:53:38.181Z,71.62
2018-02-15T11:54:38.095Z,71.06
2018-02-15T11:55:38.246Z,70.78
2018-02-15T11:56:37.968Z,69.38
2018-02-15T11:57:37.863Z,68.54
2018-02-15T11:58:37.779Z,68.15
2018-02-15T11:59:37.687Z,67.02
2018-02-15T12:00:37.657Z,67.11
2018-02-15T12:01:37.520Z,67.87
2018-02-15T12:02:37.445Z,67.71
2018-02-15T12:03:37.367Z,66.96
2018-02-15T12:04:37.286Z,65.82
2018-02-15T12:05:37.213Z,67.11
2018-02-15T12:06:37.124Z,66.54
2018-02-15T12:07:37.035Z,67.58
2018-02-15T12:08:36.963Z,67.87
2018-02-15T12:09:36.884Z,68.31
2018-02-15T12:10:36.810Z,69.17
2018-02-15T12:11:36.730Z,69.45
2018-02-15T12:12:36.640Z,70.01
2018-02-15T12:13:36.562Z,70.93
2018-02-15T12:14:36.476Z,71.69
2018-02-15T12:15:36.397Z,71.88
2018-02-15T12:16:36.315Z,72.53
2018-02-15T12:17:36.235Z,72.44
2018-02-15T12:18:36.149Z,72.10
2018-02-15T12:19:36.089Z,71.44
2018-02-15T12:20:35.986Z,71.25
2018-02-15T12:21:35.924Z,71.72
2018-02-15T12:22:35.839Z,70.68
2018-02-15T12:23:35.753Z,70.01
2018-02-15T12:24:35.667Z,70.49
2018-02-15T12:25:35.585Z,70.97
2018-02-15T12:26:35.503Z,70.49
2018-02-15T12:27:35.438Z,69.73
2018-02-15T12:28:35.344Z,69.26
2018-02-15T12:29:35.271Z,69.54
2018-02-15T12:30:35.179Z,69.57
2018-02-15T12:31:35.104Z,68.73
2018-02-15T12:32:35.014Z,68.91
2018-02-15T12:33:34.937Z,68.50
2018-02-15T12:34:34.849Z,69.29
2018-02-15T12:35:34.778Z,69.10
2018-02-15T12:36:34.685Z,69.07
2018-02-15T12:37:34.614Z,69.26
2018-02-15T12:38:34.548Z,70.39
2018-02-15T12:39:34.450Z,70.30
2018-02-15T12:40:34.368Z,70.97
2018-02-15T12:41:34.292Z,71.72
2018-02-15T12:42:34.201Z,71.69
2018-02-15T12:43:34.144Z,72.44
2018-02-15T12:44:34.037Z,72.82
2018-02-15T12:45:33.969Z,72.82
2018-02-15T12:46:33.879Z,72.57
2018-02-15T12:47:33.811Z,72.86
2018-02-15T12:48:33.718Z,72.67
2018-02-15T12:49:33.639Z,72.67
2018-02-15T12:50:33.564Z,72.38
2018-02-15T12:51:33.471Z,72.48